createdAt,value
2023-02-18T00:01:44.161Z,13.03
2023-02-18T00:04:13.824Z,12.44
2023-02-18T00:06:42.168Z,12.34
2023-02-18T00:09:11.759Z,12.88
2023-02-18T00:11:40.815Z,12.75
2023-02-18T00:14:13.599Z,12.21
2023-02-18T00:16:42.399Z,12.23
2023-02-18T00:19:15.955Z,12.69
2023-02-18T00:21:45.115Z,12.13
2023-02-18T00:24:16.561Z,13.17
2023-02-18T00:26:45.921Z,11.84
2023-02-18T00:29:14.530Z,12.21
2023-02-18T00:31:43.163Z,11.54
2023-02-18T00:34:14.740Z,12.12
2023-02-18T00:36:43.273Z,11.59
2023-02-18T00:39:13.606Z,11.39
2023-02-18T00:41:42.528Z,11.53
2023-02-18T00:44:11.722Z,11.30
2023-02-18T00:46:40.574Z,12.01
2023-02-18T00:49:09.616Z,12.07
2023-02-18T00:51:39.723Z,11.80
2023-02-18T00:54:08.061Z,11.94
2023-02-18T00:56:36.788Z,11.85
2023-02-18T00:59:05.428Z,11.84
2023-02-18T01:01:34.922Z,11.67
2023-02-18T01:04:03.368Z,11.74
2023-02-18T01:06:31.649Z,11.32
2023-02-18T01:09:01.318Z,11.42
2023-02-18T01:11:29.594Z,11.81
2023-02-18T01:13:58.100Z,11.87
2023-02-18T01:16:27.002Z,11.18
2023-02-18T01:18:55.378Z,11.34
2023-02-18T01:21:23.677Z,11.50
2023-02-18T01:23:51.981Z,12.01
2023-02-18T01:26:21.686Z,11.60
2023-02-18T01:28:50.012Z,11.65
2023-02-18T01:31:18.818Z,11.50
2023-02-18T01:33:47.242Z,11.45
2023-02-18T01:36:15.570Z,11.38
2023-02-18T01:38:43.896Z,11.65
2023-02-18T01:41:12.618Z,11.47
2023-02-18T01:43:42.484Z,11.74
2023-02-18T01:46:20.211Z,11.76
2023-02-18T01:48:54.888Z,11.53
2023-02-18T01:51:28.442Z,11.37
2023-02-18T01:54:01.834Z,11.84
2023-02-18T01:56:36.256Z,11.55
2023-02-18T01:59:11.113Z,12.21
2023-02-18T02:01:43.928Z,12.50
2023-02-18T02:04:12.987Z,11.84
2023-02-18T02:06:41.471Z,11.37
2023-02-18T02:09:14.704Z,11.96
2023-02-18T02:12:18.517Z,12.32
2023-02-18T02:15:25.204Z,12.08
2023-02-18T02:18:13.667Z,12.60
2023-02-18T02:21:27.778Z,11.78
2023-02-18T02:24:52.616Z,11.33
2023-02-18T02:27:30.287Z,11.39
2023-02-18T02:30:43.445Z,11.54
2023-02-18T02:33:58.114Z,11.74
2023-02-18T02:36:34.080Z,11.76
2023-02-18T02:39:13.759Z,11.56
2023-02-18T02:41:53.842Z,11.37
2023-02-18T02:44:28.686Z,11.26
2023-02-18T02:47:04.558Z,11.42
2023-02-18T02:49:42.641Z,12.02
2023-02-18T02:52:18.635Z,11.70
2023-02-18T02:54:46.967Z,11.17
2023-02-18T02:57:51.856Z,12.11
2023-02-18T03:00:24.405Z,11.85
2023-02-18T03:03:26.689Z,11.17
2023-02-18T03:06:18.359Z,11.40
2023-02-18T03:09:00.053Z,11.60
2023-02-18T03:11:35.148Z,11.59
2023-02-18T03:14:15.074Z,10.96
2023-02-18T03:16:51.730Z,11.38
2023-02-18T03:19:26.524Z,11.91
2023-02-18T03:22:00.174Z,12.19
2023-02-18T03:24:34.719Z,11.93
2023-02-18T03:27:09.670Z,11.79
2023-02-18T03:29:39.643Z,11.55
2023-02-18T03:32:13.311Z,11.52
2023-02-18T03:34:47.002Z,11.19
2023-02-18T03:37:16.816Z,11.63
2023-02-18T03:39:52.488Z,11.42
2023-02-18T03:42:20.777Z,12.27
2023-02-18T03:44:49.061Z,12.17
2023-02-18T03:47:17.366Z,11.57
2023-02-18T03:49:45.818Z,12.46
2023-02-18T03:52:14.244Z,12.17
2023-02-18T03:54:42.592Z,11.91
2023-02-18T03:57:13.308Z,11.90
2023-02-18T03:59:41.616Z,12.56
2023-02-18T04:02:10.089Z,11.57
2023-02-18T04:04:38.460Z,11.13
2023-02-18T04:07:06.793Z,11.47
2023-02-18T04:09:35.152Z,11.27
2023-02-18T04:12:03.444Z,11.89
2023-02-18T04:14:33.147Z,12.11
2023-02-18T04:17:01.507Z,12.06
2023-02-18T04:19:29.798Z,11.40
2023-02-18T04:21:58.176Z,11.25
2023-02-18T04:24:26.564Z,11.75
2023-02-18T04:26:54.867Z,11.83
2023-02-18T04:29:23.334Z,11.51
2023-02-18T04:31:53.028Z,10.74
2023-02-18T04:34:21.410Z,11.55
2023-02-18T04:36:49.753Z,11.85
2023-02-18T04:39:18.196Z,11.20
2023-02-18T04:41:46.556Z,11.61
2023-02-18T04:44:14.875Z,12.03
2023-02-18T04:46:43.596Z,11.04
2023-02-18T04:49:13.301Z,11.26
2023-02-18T04:51:41.622Z,11.77
2023-02-18T04:54:10.012Z,11.23
2023-02-18T04:56:38.324Z,12.18
2023-02-18T04:59:06.920Z,12.38
2023-02-18T05:01:35.378Z,11.27
2023-02-18T05:04:03.953Z,11.34
2023-02-18T05:06:33.839Z,10.94
2023-02-18T05:09:02.133Z,10.90
2023-02-18T05:11:30.449Z,10.99
2023-02-18T05:13:58.729Z,11.23
2023-02-18T05:16:27.163Z,10.84
2023-02-18T05:18:55.528Z,10.83
2023-02-18T05:21:23.910Z,10.92
2023-02-18T05:23:53.570Z,11.15
2023-02-18T05:26:21.922Z,11.09
2023-02-18T05:28:50.455Z,10.67
2023-02-18T05:31:19.148Z,10.96
2023-02-18T05:33:47.475Z,10.50
2023-02-18T05:36:15.787Z,10.85
2023-02-18T05:38:44.112Z,10.73
2023-02-18T05:41:13.789Z,10.88
2023-02-18T05:43:56.007Z,10.70
2023-02-18T05:46:24.952Z,11.11
2023-02-18T05:48:53.253Z,10.93
2023-02-18T05:51:21.572Z,10.64
2023-02-18T05:53:49.854Z,10.74
2023-02-18T05:56:19.558Z,10.76
2023-02-18T05:58:48.106Z,10.58
2023-02-18T06:01:16.502Z,10.60
2023-02-18T06:03:44.964Z,10.66
2023-02-18T06:06:13.340Z,10.76
2023-02-18T06:08:41.670Z,11.01
2023-02-18T06:11:10.001Z,10.68
2023-02-18T06:13:39.656Z,10.90
2023-02-18T06:16:08.792Z,11.46
2023-02-18T06:18:37.442Z,10.74
2023-02-18T06:21:06.621Z,11.26
2023-02-18T06:23:34.920Z,10.88
2023-02-18T06:26:03.367Z,10.49
2023-02-18T06:28:31.714Z,10.30
2023-02-18T06:31:01.646Z,11.16
2023-02-18T06:33:30.003Z,10.80
2023-02-18T06:36:01.214Z,10.62
2023-02-18T06:38:29.953Z,10.47
2023-02-18T06:40:58.246Z,10.85
2023-02-18T06:43:26.736Z,10.30
2023-02-18T06:45:55.096Z,10.29
2023-02-18T06:48:25.460Z,10.23
2023-02-18T06:50:53.834Z,10.30
2023-02-18T06:53:22.234Z,10.47
2023-02-18T06:55:50.930Z,10.78
2023-02-18T06:58:19.287Z,10.78
2023-02-18T07:00:47.880Z,10.58
2023-02-18T07:03:16.835Z,10.31
2023-02-18T07:05:46.581Z,10.54
2023-02-18T07:08:14.990Z,10.64
2023-02-18T07:10:43.278Z,10.55
2023-02-18T07:13:11.783Z,10.44
2023-02-18T07:15:40.097Z,10.48
2023-02-18T07:18:08.464Z,10.47
2023-02-18T07:20:36.822Z,10.78
2023-02-18T07:23:06.521Z,10.69
2023-02-18T07:25:34.822Z,10.36
2023-02-18T07:28:03.145Z,10.77
2023-02-18T07:30:31.589Z,10.71
2023-02-18T07:33:00.783Z,10.64
2023-02-18T07:35:29.731Z,11.12
2023-02-18T07:37:58.563Z,11.60
2023-02-18T07:40:28.626Z,11.21
2023-02-18T07:42:56.936Z,11.11
2023-02-18T07:45:26.171Z,10.93
2023-02-18T07:47:54.492Z,10.87
2023-02-18T07:50:22.796Z,10.76
2023-02-18T07:52:51.127Z,10.17
2023-02-18T07:55:19.603Z,10.35
2023-02-18T07:58:00.448Z,10.52
2023-02-18T08:00:28.721Z,10.50
2023-02-18T08:02:57.021Z,10.70
2023-02-18T08:05:25.408Z,10.60
2023-02-18T08:07:53.728Z,11.18
2023-02-18T08:10:22.149Z,10.51
2023-02-18T08:12:51.841Z,10.46
2023-02-18T08:15:20.173Z,10.46
2023-02-18T08:17:48.523Z,10.47
2023-02-18T08:20:17.109Z,10.41
2023-02-18T08:22:45.501Z,10.50
2023-02-18T08:25:27.686Z,10.18
2023-02-18T08:27:58.809Z,10.12
2023-02-18T08:30:27.681Z,9.63
2023-02-18T08:32:56.326Z,10.06
2023-02-18T08:35:24.697Z,10.36
2023-02-18T08:37:54.424Z,9.95
2023-02-18T08:40:23.213Z,10.20
2023-02-18T08:42:51.537Z,10.60
2023-02-18T08:45:21.409Z,10.30
2023-02-18T08:48:18.702Z,10.09
2023-02-18T08:50:38.425Z,9.80
2023-02-18T08:53:06.804Z,10.09
2023-02-18T08:55:37.963Z,10.20
2023-02-18T08:58:07.216Z,10.23
2023-02-18T09:00:40.080Z,10.61
2023-02-18T09:03:08.966Z,10.12
2023-02-18T09:05:37.249Z,10.57
2023-02-18T09:08:06.330Z,10.87
2023-02-18T09:10:34.649Z,10.19
2023-02-18T09:13:03.083Z,10.18
2023-02-18T09:15:32.348Z,10.19
2023-02-18T09:18:02.088Z,10.12
2023-02-18T09:20:30.361Z,10.13
2023-02-18T09:23:00.866Z,10.28
2023-02-18T09:25:29.208Z,10.06
2023-02-18T09:27:57.531Z,10.51
2023-02-18T09:30:25.830Z,10.32
2023-02-18T09:32:54.124Z,10.21
2023-02-18T09:35:23.763Z,10.45
2023-02-18T09:37:52.046Z,10.60
2023-02-18T09:40:30.472Z,10.55
2023-02-18T09:43:00.287Z,10.34
2023-02-18T09:45:30.085Z,10.54
2023-02-18T09:47:59.705Z,10.45
2023-02-18T09:50:33.558Z,10.53
2023-02-18T09:53:04.082Z,10.46
2023-02-18T09:55:36.331Z,10.87
2023-02-18T09:58:08.639Z,10.49
2023-02-18T10:00:40.499Z,10.86
2023-02-18T10:03:16.058Z,10.54
2023-02-18T10:05:57.323Z,10.55
2023-02-18T10:08:29.240Z,10.74
2023-02-18T10:10:57.634Z,10.48
2023-02-18T10:13:29.946Z,10.06
2023-02-18T10:15:58.356Z,10.31
2023-02-18T10:18:32.254Z,10.70
2023-02-18T10:21:11.325Z,10.69
2023-02-18T10:23:43.790Z,10.89
2023-02-18T10:26:19.174Z,10.76
2023-02-18T10:28:48.254Z,10.60
2023-02-18T10:31:24.757Z,10.47
2023-02-18T10:34:00.621Z,10.83
2023-02-18T10:36:38.170Z,10.94
2023-02-18T10:39:49.307Z,10.42
2023-02-18T10:42:35.075Z,10.77
2023-02-18T10:45:19.666Z,10.37
2023-02-18T10:48:01.607Z,10.28
2023-02-18T10:50:35.771Z,10.18
2023-02-18T10:53:14.813Z,10.14
2023-02-18T10:55:46.335Z,10.24
2023-02-18T10:58:35.867Z,10.80
2023-02-18T11:01:09.030Z,10.40
2023-02-18T11:03:44.033Z,9.78
2023-02-18T11:06:26.336Z,9.70
2023-02-18T11:08:57.992Z,10.12
2023-02-18T11:11:31.364Z,10.18
2023-02-18T11:14:04.393Z,10.55
2023-02-18T11:16:42.185Z,9.84
2023-02-18T11:19:34.195Z,9.83
2023-02-18T11:22:16.012Z,9.73
2023-02-18T11:24:48.646Z,9.79
2023-02-18T11:27:27.497Z,10.37
2023-02-18T11:30:01.819Z,10.09
2023-02-18T11:32:31.947Z,9.89
2023-02-18T11:35:00.454Z,9.87
2023-02-18T11:37:28.801Z,9.95
2023-02-18T11:39:58.604Z,10.28
2023-02-18T11:42:28.264Z,10.26
2023-02-18T11:44:59.549Z,9.84
2023-02-18T11:47:32.171Z,10.03
2023-02-18T11:50:15.050Z,10.35
2023-02-18T11:52:45.951Z,11.22
2023-02-18T11:55:21.044Z,11.26
2023-02-18T11:57:56.373Z,10.41
2023-02-18T12:00:39.179Z,10.29
2023-02-18T12:03:16.592Z,10.23
2023-02-18T12:05:46.732Z,10.74
2023-02-18T12:08:21.564Z,10.21
2023-02-18T12:10:55.721Z,10.12
2023-02-18T12:13:28.898Z,10.65
2023-02-18T12:16:09.927Z,10.70
2023-02-18T12:19:04.911Z,10.91
2023-02-18T12:21:45.875Z,10.93
2023-02-18T12:24:41.286Z,10.69
2023-02-18T12:27:20.218Z,10.67
2023-02-18T12:30:16.854Z,10.70
2023-02-18T12:32:54.657Z,10.77
2023-02-18T12:35:45.968Z,11.79
2023-02-18T12:38:46.948Z,10.58
2023-02-18T12:41:36.655Z,10.25
2023-02-18T12:44:23.532Z,11.20
2023-02-18T12:47:19.384Z,11.92
2023-02-18T12:50:37.247Z,11.64
2023-02-18T12:53:45.670Z,10.99
2023-02-18T12:56:44.362Z,11.04
2023-02-18T12:59:43.798Z,10.88
2023-02-18T13:02:33.938Z,11.15
2023-02-18T13:05:13.586Z,10.64
2023-02-18T13:08:00.935Z,11.37
2023-02-18T13:10:55.850Z,11.35
2023-02-18T13:13:27.775Z,10.69
2023-02-18T13:16:02.904Z,11.78
2023-02-18T13:18:36.370Z,10.97
2023-02-18T13:21:08.199Z,10.84
2023-02-18T13:23:41.224Z,11.13
2023-02-18T13:26:15.483Z,11.84
2023-02-18T13:28:51.613Z,11.66
2023-02-18T13:31:37.423Z,11.02
2023-02-18T13:34:13.352Z,11.71
2023-02-18T13:36:56.224Z,11.40
2023-02-18T13:39:26.180Z,11.56
2023-02-18T13:42:24.908Z,11.58
2023-02-18T13:45:27.423Z,11.23
2023-02-18T13:47:58.428Z,11.76
2023-02-18T13:50:34.510Z,10.96
2023-02-18T13:53:25.901Z,10.85
2023-02-18T13:56:08.556Z,11.42
2023-02-18T13:58:45.203Z,11.06
2023-02-18T14:01:22.832Z,10.65
2023-02-18T14:04:01.409Z,10.32
2023-02-18T14:06:33.887Z,10.63
2023-02-18T14:09:38.113Z,11.06
2023-02-18T14:12:40.274Z,11.35
2023-02-18T14:15:51.145Z,10.88
2023-02-18T14:18:37.029Z,10.75
2023-02-18T14:21:35.748Z,10.98
2023-02-18T14:24:07.193Z,10.84
2023-02-18T14:26:45.637Z,10.84
2023-02-18T14:29:21.870Z,10.97
2023-02-18T14:31:58.427Z,11.05
2023-02-18T14:35:09.780Z,10.81
2023-02-18T14:38:34.336Z,10.73
2023-02-18T14:41:38.460Z,10.98
2023-02-18T14:44:24.879Z,10.65
2023-02-18T14:47:18.762Z,10.83
2023-02-18T14:49:59.834Z,10.76
2023-02-18T14:52:34.304Z,10.81
2023-02-18T14:55:06.228Z,10.61
2023-02-18T14:57:43.361Z,10.48
2023-02-18T15:00:19.023Z,10.85
2023-02-18T15:02:51.194Z,10.64
2023-02-18T15:05:24.134Z,10.80
2023-02-18T15:08:00.798Z,11.09
2023-02-18T15:10:43.351Z,10.90
2023-02-18T15:13:19.489Z,10.67
2023-02-18T15:15:52.271Z,11.12
2023-02-18T15:18:29.552Z,11.24
2023-02-18T15:21:01.935Z,11.65
2023-02-18T15:23:31.780Z,11.37
2023-02-18T15:26:00.403Z,11.86
2023-02-18T15:28:32.266Z,11.98
2023-02-18T15:31:02.118Z,11.91
2023-02-18T15:33:31.173Z,11.71
2023-02-18T15:36:05.347Z,11.49
2023-02-18T15:38:34.502Z,10.91
2023-02-18T15:41:04.103Z,11.01
2023-02-18T15:43:32.474Z,10.82
2023-02-18T15:46:00.853Z,11.32
2023-02-18T15:48:35.320Z,11.56
2023-02-18T15:51:17.441Z,11.22
2023-02-18T15:53:50.088Z,10.95
2023-02-18T15:56:25.079Z,10.96
2023-02-18T15:59:12.066Z,11.68
2023-02-18T16:01:40.449Z,11.57
2023-02-18T16:04:09.910Z,11.80
2023-02-18T16:06:47.548Z,11.66
2023-02-18T16:09:21.107Z,11.50
2023-02-18T16:11:52.920Z,10.91
2023-02-18T16:14:29.176Z,10.53
2023-02-18T16:17:15.546Z,11.03
2023-02-18T16:20:03.927Z,10.81
2023-02-18T16:22:44.579Z,10.41
2023-02-18T16:25:20.331Z,10.75
2023-02-18T16:27:53.129Z,11.53
2023-02-18T16:30:25.076Z,11.42
2023-02-18T16:32:54.882Z,12.02
2023-02-18T16:35:25.282Z,12.54
2023-02-18T16:37:57.727Z,11.57
2023-02-18T16:40:32.352Z,11.86
2023-02-18T16:43:03.988Z,12.31
2023-02-18T16:45:39.005Z,11.89
2023-02-18T16:48:08.358Z,11.72
2023-02-18T16:50:36.711Z,11.03
2023-02-18T16:53:06.419Z,11.01
2023-02-18T16:55:34.751Z,11.15
2023-02-18T16:58:03.079Z,10.83
2023-02-18T17:00:31.404Z,11.04
2023-02-18T17:03:01.664Z,11.05
2023-02-18T17:05:35.398Z,11.22
2023-02-18T17:08:20.519Z,11.78
2023-02-18T17:10:49.810Z,11.30
2023-02-18T17:13:20.009Z,11.41
2023-02-18T17:15:50.894Z,11.54
2023-02-18T17:18:19.317Z,11.47
2023-02-18T17:20:49.436Z,11.65
2023-02-18T17:23:23.042Z,11.92
2023-02-18T17:25:53.593Z,12.01
2023-02-18T17:28:22.750Z,11.80
2023-02-18T17:30:57.437Z,11.56
2023-02-18T17:33:26.527Z,11.75
2023-02-18T17:35:55.149Z,12.09
2023-02-18T17:38:24.909Z,12.26
2023-02-18T17:40:53.263Z,11.77
2023-02-18T17:43:23.855Z,10.68
2023-02-18T17:45:54.778Z,10.59
2023-02-18T17:48:23.545Z,10.69
2023-02-18T17:50:52.525Z,10.82
2023-02-18T17:53:21.158Z,10.67
2023-02-18T17:55:51.826Z,10.50
2023-02-18T17:58:20.409Z,10.74
2023-02-18T18:00:52.906Z,11.17
2023-02-18T18:03:22.161Z,11.21
2023-02-18T18:05:54.529Z,10.97
2023-02-18T18:08:22.903Z,10.71
2023-02-18T18:10:57.089Z,10.59
2023-02-18T18:13:28.354Z,10.56
2023-02-18T18:15:58.124Z,10.84
2023-02-18T18:18:27.888Z,10.58
2023-02-18T18:20:59.828Z,10.88
2023-02-18T18:23:29.374Z,11.15
2023-02-18T18:26:00.037Z,11.30
2023-02-18T18:28:33.010Z,11.04
2023-02-18T18:31:02.648Z,10.78
2023-02-18T18:33:34.762Z,10.45
2023-02-18T18:36:03.373Z,10.38
2023-02-18T18:38:31.808Z,10.56
2023-02-18T18:41:01.500Z,10.89
2023-02-18T18:43:33.338Z,10.44
2023-02-18T18:46:02.560Z,10.48
2023-02-18T18:48:31.407Z,10.30
2023-02-18T18:51:01.950Z,10.48
2023-02-18T18:53:32.173Z,10.91
2023-02-18T18:56:03.821Z,11.16
2023-02-18T18:58:32.768Z,10.68
2023-02-18T19:01:03.953Z,10.44
2023-02-18T19:03:33.896Z,10.97
2023-02-18T19:06:02.226Z,11.10
2023-02-18T19:08:32.346Z,10.71
2023-02-18T19:11:04.046Z,10.67
2023-02-18T19:13:35.935Z,10.57
2023-02-18T19:16:09.192Z,10.81
2023-02-18T19:18:37.492Z,10.71
2023-02-18T19:21:06.347Z,10.70
2023-02-18T19:23:36.421Z,10.57
2023-02-18T19:26:06.759Z,10.73
2023-02-18T19:28:35.142Z,11.04
2023-02-18T19:31:03.747Z,11.11
2023-02-18T19:33:32.228Z,11.02
2023-02-18T19:36:00.568Z,10.46
2023-02-18T19:38:28.952Z,11.06
2023-02-18T19:40:57.263Z,11.13
2023-02-18T19:43:26.920Z,10.93
2023-02-18T19:45:55.262Z,10.85
2023-02-18T19:48:23.895Z,10.93
2023-02-18T19:50:52.241Z,11.05
2023-02-18T19:53:20.515Z,11.37
2023-02-18T19:55:59.731Z,10.82
2023-02-18T19:58:31.031Z,10.53
2023-02-18T20:00:59.437Z,10.79
2023-02-18T20:03:27.759Z,10.77
2023-02-18T20:05:56.158Z,10.82
2023-02-18T20:08:24.468Z,10.69
2023-02-18T20:10:58.734Z,11.06
2023-02-18T20:13:27.593Z,10.72
2023-02-18T20:15:57.315Z,10.84
2023-02-18T20:18:25.600Z,10.66
2023-02-18T20:20:53.899Z,10.83
2023-02-18T20:23:22.189Z,10.67
2023-02-18T20:25:50.595Z,10.67
2023-02-18T20:28:19.009Z,10.99
2023-02-18T20:30:47.324Z,10.29
2023-02-18T20:33:17.031Z,10.89
2023-02-18T20:35:45.373Z,11.58
2023-02-18T20:38:13.656Z,11.10
2023-02-18T20:40:41.958Z,11.04
2023-02-18T20:43:10.248Z,10.95
2023-02-18T20:45:38.606Z,10.87
2023-02-18T20:48:07.311Z,10.82
2023-02-18T20:50:38.141Z,10.70
2023-02-18T20:53:06.462Z,10.52
2023-02-18T20:55:35.626Z,11.00
2023-02-18T20:58:03.922Z,11.01
2023-02-18T21:00:32.232Z,10.97
2023-02-18T21:03:00.576Z,11.11
2023-02-18T21:05:28.908Z,10.51
2023-02-18T21:07:58.544Z,10.39
2023-02-18T21:10:26.883Z,10.51
2023-02-18T21:12:55.157Z,10.79
2023-02-18T21:15:23.466Z,11.50
2023-02-18T21:17:51.734Z,10.82
2023-02-18T21:20:20.283Z,10.87
2023-02-18T21:22:48.573Z,10.96
2023-02-18T21:25:18.372Z,11.22
2023-02-18T21:27:46.649Z,11.46
2023-02-18T21:30:15.122Z,11.29
2023-02-18T21:32:43.474Z,10.70
2023-02-18T21:35:11.740Z,11.13
2023-02-18T21:37:40.062Z,11.20
2023-02-18T21:40:09.508Z,11.08
2023-02-18T21:42:39.210Z,10.49
2023-02-18T21:45:08.917Z,10.56
2023-02-18T21:47:37.875Z,10.78
2023-02-18T21:50:06.644Z,10.53
2023-02-18T21:52:34.938Z,10.72
2023-02-18T21:55:03.222Z,10.74
2023-02-18T21:57:32.303Z,10.93
2023-02-18T22:00:14.678Z,10.84
2023-02-18T22:02:47.768Z,10.90
2023-02-18T22:05:16.226Z,10.72
2023-02-18T22:07:44.529Z,10.83
2023-02-18T22:10:12.891Z,10.86
2023-02-18T22:12:41.167Z,10.67
2023-02-18T22:15:11.212Z,10.83
2023-02-18T22:17:39.577Z,10.69
2023-02-18T22:20:09.530Z,10.91
2023-02-18T22:22:37.856Z,11.24
2023-02-18T22:25:08.421Z,11.21
2023-02-18T22:27:36.735Z,11.22
2023-02-18T22:30:06.589Z,11.48
2023-02-18T22:32:36.383Z,11.27
2023-02-18T22:35:04.743Z,11.25
2023-02-18T22:37:35.748Z,10.85
2023-02-18T22:40:04.150Z,11.00
2023-02-18T22:42:32.451Z,11.20
2023-02-18T22:45:02.777Z,11.31
2023-02-18T22:47:31.129Z,11.33
2023-02-18T22:50:00.802Z,11.58
2023-02-18T22:52:29.230Z,11.48
2023-02-18T22:54:57.764Z,10.58
2023-02-18T22:57:26.163Z,10.43
2023-02-18T22:59:54.502Z,11.00
2023-02-18T23:02:22.826Z,10.68
2023-02-18T23:04:51.094Z,10.77
2023-02-18T23:07:24.491Z,10.54
2023-02-18T23:09:52.848Z,10.64
2023-02-18T23:12:23.163Z,11.19
2023-02-18T23:14:51.446Z,10.45
2023-02-18T23:17:19.754Z,10.64
2023-02-18T23:19:50.540Z,11.01
2023-02-18T23:22:28.400Z,10.67
2023-02-18T23:24:57.042Z,10.55
2023-02-18T23:27:26.057Z,10.94
2023-02-18T23:29:55.185Z,10.70
2023-02-18T23:32:23.983Z,10.31
2023-02-18T23:34:52.568Z,10.56
2023-02-18T23:37:44.141Z,10.56
2023-02-18T23:40:13.827Z,11.02
2023-02-18T23:42:42.355Z,10.78
2023-02-18T23:45:10.922Z,11.07
2023-02-18T23:47:39.214Z,11.46
2023-02-18T23:50:08.417Z,11.44
2023-02-18T23:52:38.253Z,11.31
2023-02-18T23:55:07.212Z,11.80
2023-02-18T23:57:35.659Z,11.13
